Time;durP1;ratioP1;P1;durP2;ratioP2;P2;SDS_P1;SDS_P2;PMS_P1;PMS_P2;Temp;Humidity;BMP_temperature;BMP_pressure;BME280_temperature;BME280_humidity;BME280_pressure;Samples;Min_cycle;Max_cycle;Signal;HPM_P1;HPM_P2
2023/09/19 00:00:47;;;;;;;4.40;1.60;;;;;;;;;;4985644;28;20038;-80
2023/09/19 00:03:12;;;;;;;;;;;;;;;;;;4977542;28;20030;-80
2023/09/19 00:05:38;;;;;;;5.88;1.80;;;;;;;;;;4961769;28;19921;-79
2023/09/19 00:08:04;;;;;;;4.15;1.98;;;;;;;;;;4972294;28;20481;-80
2023/09/19 00:10:31;;;;;;;4.00;1.70;;;;;;;;;;4973546;28;20046;-79
2023/09/19 00:12:59;;;;;;;5.95;1.55;;;;;;;;;;4961014;28;20481;-80
2023/09/19 00:15:28;;;;;;;5.50;1.65;;;;;;;;;;4967443;28;20512;-80
2023/09/19 00:17:54;;;;;;;4.18;1.60;;;;;;;;;;4961414;28;20031;-79
2023/09/19 00:20:22;;;;;;;5.95;1.73;;;;;;;;;;4967446;28;20452;-79
2023/09/19 00:22:49;;;;;;;3.95;1.50;;;;;;;;;;4962803;28;20034;-79
2023/09/19 00:25:15;;;;;;;5.15;1.55;;;;;;;;;;4973140;28;20097;-78
2023/09/19 00:27:41;;;;;;;4.80;1.40;;;;;;;;;;4959286;28;20046;-78
2023/09/19 00:30:14;;;;;;;4.55;1.60;;;;;;;;;;4973917;28;20398;-79
2023/09/19 00:32:40;;;;;;;4.72;1.70;;;;;;;;;;4976821;28;20045;-78
2023/09/19 00:35:08;;;;;;;5.65;1.80;;;;;;;;;;4973758;28;20564;-79
2023/09/19 00:37:34;;;;;;;5.43;2.05;;;;;;;;;;4976370;28;20497;-79
2023/09/19 00:39:59;;;;;;;5.68;1.70;;;;;;;;;;4974624;28;20089;-79
2023/09/19 00:42:25;;;;;;;4.82;1.55;;;;;;;;;;4973555;28;20453;-78
2023/09/19 00:44:51;;;;;;;5.93;1.70;;;;;;;;;;4961419;28;20394;-79
2023/09/19 00:47:18;;;;;;;6.68;1.70;;;;;;;;;;4978429;28;20089;-79
2023/09/19 00:49:49;;;;;;;5.73;1.70;;;;;;;;;;4977550;28;20042;-79
2023/09/19 00:52:16;;;;;;;4.20;1.67;;;;;;;;;;4976070;28;20797;-78
2023/09/19 00:54:41;;;;;;;5.00;1.90;;;;;;;;;;4977986;28;20057;-79
2023/09/19 00:57:07;;;;;;;4.18;1.67;;;;;;;;;;4967897;28;20035;-78
2023/09/19 00:59:35;;;;;;;5.78;1.67;;;;;;;;;;4975749;28;20165;-79
2023/09/19 01:02:02;;;;;;;8.60;1.65;;;;;;;;;;4956104;28;20034;-79
2023/09/19 01:04:28;;;;;;;5.90;1.95;;;;;;;;;;4977028;28;20104;-78
2023/09/19 01:06:54;;;;;;;4.20;1.45;;;;;;;;;;4957352;28;20521;-79
2023/09/19 01:09:21;;;;;;;4.97;1.60;;;;;;;;;;4975063;28;20058;-78
2023/09/19 01:11:48;;;;;;;4.25;1.33;;;;;;;;;;4973132;28;20066;-78
2023/09/19 01:14:34;;;;;;;3.70;1.60;;;;;;;;;;4976975;28;20121;-80
2023/09/19 01:17:30;;;;;;;5.07;1.55;;;;;;;;;;4964183;28;20038;-79
2023/09/19 01:20:16;;;;;;;4.15;1.60;;;;;;;;;;4966125;28;20041;-78
2023/09/19 01:23:02;;;;;;;4.90;1.80;;;;;;;;;;4973325;28;20042;-79
2023/09/19 01:25:56;;;;;;;7.13;1.90;;;;;;;;;;4972731;28;20760;-78
2023/09/19 01:28:43;;;;;;;4.65;1.30;;;;;;;;;;4972640;28;20055;-79
2023/09/19 01:31:10;;;;;;;3.63;1.45;;;;;;;;;;4980632;28;20150;-78
2023/09/19 01:34:01;;;;;;;5.32;1.67;;;;;;;;;;4975785;28;20485;-79
2023/09/19 01:36:35;;;;;;;3.92;1.58;;;;;;;;;;4981744;28;20037;-78
2023/09/19 01:39:10;;;;;;;4.20;1.52;;;;;;;;;;4973597;28;20880;-79
2023/09/19 01:41:55;;;;;;;5.07;1.70;;;;;;;;;;4979436;28;20043;-79
2023/09/19 01:44:26;;;;;;;4.40;1.50;;;;;;;;;;4965182;28;20042;-79
2023/09/19 01:46:52;;;;;;;4.20;1.42;;;;;;;;;;4958591;28;20188;-79
2023/09/19 01:49:40;;;;;;;4.70;1.63;;;;;;;;;;4976635;28;20038;-79
2023/09/19 01:52:13;;;;;;;3.40;1.55;;;;;;;;;;4962913;28;20050;-79
2023/09/19 01:54:46;;;;;;;3.50;1.58;;;;;;;;;;4976491;28;20601;-78
2023/09/19 01:57:33;;;;;;;4.93;1.60;;;;;;;;;;4976157;28;20041;-79
2023/09/19 02:00:06;;;;;;;5.50;1.58;;;;;;;;;;4975029;28;20682;-80
2023/09/19 02:02:36;;;;;;;4.97;1.80;;;;;;;;;;4971405;28;20030;-80
2023/09/19 02:05:03;;;;;;;6.32;1.55;;;;;;;;;;4974831;28;20433;-80
2023/09/19 02:07:31;;;;;;;5.13;1.58;;;;;;;;;;4988176;28;20394;-79
2023/09/19 02:10:00;;;;;;;5.18;1.58;;;;;;;;;;4960780;28;20035;-80
2023/09/19 02:12:27;;;;;;;4.88;1.50;;;;;;;;;;4965181;28;20093;-77
2023/09/19 02:14:52;;;;;;;3.17;1.40;;;;;;;;;;4967312;28;20038;-78
2023/09/19 02:17:19;;;;;;;4.97;1.70;;;;;;;;;;4961783;28;20097;-78
2023/09/19 02:19:44;;;;;;;4.15;1.88;;;;;;;;;;4955122;28;20434;-78
2023/09/19 02:22:10;;;;;;;4.90;1.67;;;;;;;;;;4956901;28;20038;-78
2023/09/19 02:24:37;;;;;;;4.82;1.48;;;;;;;;;;4961806;28;20038;-78
2023/09/19 02:27:04;;;;;;;;;;;;;;;;;;4960615;28;20042;-79
2023/09/19 02:29:30;;;;;;;3.70;1.75;;;;;;;;;;4973650;28;20364;-79
2023/09/19 02:31:55;;;;;;;6.03;1.83;;;;;;;;;;4959904;28;20059;-80
2023/09/19 02:34:22;;;;;;;3.28;1.60;;;;;;;;;;4959889;28;20574;-79
2023/09/19 02:36:47;;;;;;;3.95;2.05;;;;;;;;;;4969366;28;20577;-79
2023/09/19 02:39:13;;;;;;;4.85;1.85;;;;;;;;;;4973191;28;20114;-80
2023/09/19 02:41:38;;;;;;;4.28;1.45;;;;;;;;;;4962452;28;20030;-79
2023/09/19 02:44:07;;;;;;;4.18;1.63;;;;;;;;;;4976044;28;20062;-80
2023/09/19 02:46:33;;;;;;;3.92;1.70;;;;;;;;;;4958665;28;20031;-80
2023/09/19 02:48:59;;;;;;;6.63;2.05;;;;;;;;;;4962141;28;20034;-79
2023/09/19 02:51:24;;;;;;;3.83;1.70;;;;;;;;;;4977240;28;20045;-79
2023/09/19 02:53:52;;;;;;;3.15;1.60;;;;;;;;;;4961185;28;20468;-80
2023/09/19 02:56:18;;;;;;;3.17;1.65;;;;;;;;;;4977004;28;20046;-79
2023/09/19 02:58:44;;;;;;;3.58;1.65;;;;;;;;;;4969992;28;20038;-79
2023/09/19 03:01:12;;;;;;;4.82;1.80;;;;;;;;;;4961891;28;20041;-80
2023/09/19 03:03:39;;;;;;;5.30;2.00;;;;;;;;;;4971119;28;20045;-79
2023/09/19 03:06:05;;;;;;;4.22;1.92;;;;;;;;;;4971675;28;20027;-80
2023/09/19 03:08:36;;;;;;;5.72;1.58;;;;;;;;;;4970499;28;20037;-80
2023/09/19 03:11:05;;;;;;;5.47;1.70;;;;;;;;;;4975573;28;20058;-79
2023/09/19 03:13:31;;;;;;;5.30;1.80;;;;;;;;;;4972174;28;20093;-80
2023/09/19 03:15:58;;;;;;;3.30;1.52;;;;;;;;;;4972290;28;20034;-80
2023/09/19 03:18:25;;;;;;;5.50;1.70;;;;;;;;;;4958837;28;20791;-80
2023/09/19 03:20:54;;;;;;;;;;;;;;;;;;4968040;28;20732;-79
2023/09/19 03:23:20;;;;;;;5.07;1.50;;;;;;;;;;4975904;28;20009;-79
2023/09/19 03:25:46;;;;;;;3.75;1.50;;;;;;;;;;4972406;28;20470;-80
2023/09/19 03:28:12;;;;;;;2.58;1.40;;;;;;;;;;4977187;28;20057;-80
2023/09/19 03:30:38;;;;;;;3.53;1.40;;;;;;;;;;4961239;28;20038;-80
2023/09/19 03:33:04;;;;;;;2.67;1.35;;;;;;;;;;4969863;28;20039;-79
2023/09/19 03:35:30;;;;;;;5.15;1.60;;;;;;;;;;4960040;28;20057;-79
2023/09/19 03:37:56;;;;;;;4.18;1.48;;;;;;;;;;4964932;28;20042;-78
2023/09/19 03:40:23;;;;;;;3.33;1.33;;;;;;;;;;4974770;28;20037;-78
2023/09/19 03:42:48;;;;;;;3.45;1.40;;;;;;;;;;4971708;28;20496;-78
2023/09/19 03:45:14;;;;;;;3.65;1.42;;;;;;;;;;4982706;28;20074;-78
2023/09/19 03:47:40;;;;;;;5.45;1.70;;;;;;;;;;4972361;28;20027;-78
2023/09/19 03:50:08;;;;;;;5.00;1.48;;;;;;;;;;4976115;28;20130;-79
2023/09/19 03:52:34;;;;;;;3.97;1.10;;;;;;;;;;4974676;28;20034;-78
2023/09/19 03:54:59;;;;;;;5.47;1.30;;;;;;;;;;4973663;28;20030;-79
2023/09/19 03:57:25;;;;;;;3.10;1.20;;;;;;;;;;4961666;28;20500;-78
2023/09/19 03:59:53;;;;;;;3.75;1.40;;;;;;;;;;4958474;28;20060;-79
2023/09/19 04:02:24;;;;;;;;;;;;;;;;;;4983923;28;20038;-79
2023/09/19 04:04:53;;;;;;;3.00;1.13;;;;;;;;;;4968326;28;20515;-80
2023/09/19 04:07:19;;;;;;;2.42;1.08;;;;;;;;;;4972936;28;20058;-80
2023/09/19 04:09:45;;;;;;;3.72;1.10;;;;;;;;;;4955738;28;20573;-80
2023/09/19 04:12:11;;;;;;;4.03;1.17;;;;;;;;;;4982937;28;20073;-80
2023/09/19 04:14:37;;;;;;;4.00;1.17;;;;;;;;;;4971908;28;20043;-81
2023/09/19 04:17:03;;;;;;;2.20;0.93;;;;;;;;;;4974380;28;20102;-81
2023/09/19 04:19:28;;;;;;;2.60;0.90;;;;;;;;;;4971988;28;20117;-81
2023/09/19 04:21:54;;;;;;;4.03;1.10;;;;;;;;;;4954893;28;20043;-81
2023/09/19 04:24:19;;;;;;;4.45;1.10;;;;;;;;;;4961071;28;20050;-82
2023/09/19 04:26:45;;;;;;;4.15;1.02;;;;;;;;;;4975687;28;20070;-81
2023/09/19 04:29:13;;;;;;;4.00;1.08;;;;;;;;;;4974371;28;20035;-82
2023/09/19 04:31:40;;;;;;;3.40;1.20;;;;;;;;;;4974619;28;20034;-81
2023/09/19 04:34:08;;;;;;;2.55;1.02;;;;;;;;;;4975153;28;20084;-82
2023/09/19 04:36:33;;;;;;;2.17;0.90;;;;;;;;;;4968377;28;20027;-82
2023/09/19 04:38:59;;;;;;;4.00;1.15;;;;;;;;;;4976923;28;20027;-81
2023/09/19 04:41:24;;;;;;;3.28;1.10;;;;;;;;;;4972699;28;20053;-81
2023/09/19 04:43:50;;;;;;;3.47;1.15;;;;;;;;;;4958746;28;20042;-81
2023/09/19 04:46:17;;;;;;;2.95;0.90;;;;;;;;;;4965083;28;20093;-81
2023/09/19 04:48:43;;;;;;;7.17;1.37;;;;;;;;;;4972931;28;20034;-81
2023/09/19 04:51:08;;;;;;;2.58;0.90;;;;;;;;;;4960598;28;20049;-83
2023/09/19 04:53:34;;;;;;;3.47;1.02;;;;;;;;;;4973393;28;20034;-82
2023/09/19 04:55:59;;;;;;;3.53;1.00;;;;;;;;;;4967219;28;20402;-82
2023/09/19 04:58:24;;;;;;;3.08;1.00;;;;;;;;;;4973607;28;20034;-82
2023/09/19 05:00:51;;;;;;;4.30;1.20;;;;;;;;;;4976779;28;20035;-82
2023/09/19 05:03:17;;;;;;;4.45;1.23;;;;;;;;;;4973045;28;20416;-81
2023/09/19 05:05:42;;;;;;;4.28;1.30;;;;;;;;;;4966604;28;20026;-82
2023/09/19 05:08:09;;;;;;;4.50;1.10;;;;;;;;;;4965929;28;20039;-82
2023/09/19 05:10:37;;;;;;;5.18;1.30;;;;;;;;;;4976749;28;20513;-82
2023/09/19 05:13:07;;;;;;;3.90;1.38;;;;;;;;;;4977429;28;20035;-82
2023/09/19 05:15:33;;;;;;;3.45;1.20;;;;;;;;;;4958467;28;20038;-83
2023/09/19 05:17:58;;;;;;;2.45;1.00;;;;;;;;;;4972941;28;20050;-82
2023/09/19 05:20:29;;;;;;;2.72;0.90;;;;;;;;;;4972244;28;20042;-83
2023/09/19 05:22:58;;;;;;;3.50;1.35;;;;;;;;;;4974921;28;20899;-83
2023/09/19 05:25:24;;;;;;;3.88;1.17;;;;;;;;;;4980972;28;20502;-83
2023/09/19 05:27:53;;;;;;;3.83;1.20;;;;;;;;;;4976324;28;20489;-81
2023/09/19 05:30:20;;;;;;;3.20;1.30;;;;;;;;;;4974814;28;20382;-82
2023/09/19 05:32:45;;;;;;;6.80;1.30;;;;;;;;;;4964397;28;21039;-82
2023/09/19 05:35:12;;;;;;;4.40;1.23;;;;;;;;;;4972507;28;20037;-83
2023/09/19 05:37:39;;;;;;;3.75;1.20;;;;;;;;;;4965502;28;20481;-82
2023/09/19 05:40:11;;;;;;;3.88;1.20;;;;;;;;;;4961207;28;20126;-82
2023/09/19 05:42:39;;;;;;;3.30;1.30;;;;;;;;;;4972064;28;20429;-83
2023/09/19 05:45:06;;;;;;;3.47;1.45;;;;;;;;;;4958291;28;20034;-83
2023/09/19 05:47:32;;;;;;;3.28;1.25;;;;;;;;;;4971884;28;20044;-83
2023/09/19 05:49:57;;;;;;;3.55;1.23;;;;;;;;;;4959895;28;20043;-83
2023/09/19 05:52:23;;;;;;;4.05;1.25;;;;;;;;;;4969685;28;20121;-82
2023/09/19 05:54:49;;;;;;;3.22;1.13;;;;;;;;;;4973573;28;20476;-82
2023/09/19 05:57:15;;;;;;;3.25;1.17;;;;;;;;;;4966688;28;20030;-82
2023/09/19 05:59:42;;;;;;;4.65;1.15;;;;;;;;;;4957073;28;20562;-82
2023/09/19 06:02:09;;;;;;;5.13;1.20;;;;;;;;;;4973112;28;20057;-82
2023/09/19 06:04:35;;;;;;;2.83;1.27;;;;;;;;;;4971998;28;20509;-83
2023/09/19 06:07:04;;;;;;;4.43;1.63;;;;;;;;;;4972233;28;20051;-82
2023/09/19 06:09:31;;;;;;;4.85;1.25;;;;;;;;;;4975414;28;20035;-81
2023/09/19 06:11:57;;;;;;;3.20;1.27;;;;;;;;;;4979224;28;20041;-81
2023/09/19 06:14:24;;;;;;;3.90;1.13;;;;;;;;;;4962141;28;20038;-81
2023/09/19 06:16:50;;;;;;;4.15;1.38;;;;;;;;;;4976884;28;20074;-81
2023/09/19 06:19:18;;;;;;;5.07;1.35;;;;;;;;;;4971538;28;20389;-82
2023/09/19 06:21:46;;;;;;;4.05;1.48;;;;;;;;;;4962098;28;20054;-82
2023/09/19 06:24:12;;;;;;;4.35;1.38;;;;;;;;;;4976375;28;20082;-82
2023/09/19 06:26:37;;;;;;;3.72;1.30;;;;;;;;;;4963530;28;20775;-81
2023/09/19 06:29:04;;;;;;;4.07;1.30;;;;;;;;;;4977930;28;20516;-81
2023/09/19 06:31:30;;;;;;;3.00;1.30;;;;;;;;;;4977234;28;20045;-80
2023/09/19 06:33:56;;;;;;;4.95;1.40;;;;;;;;;;4977303;28;20088;-81
2023/09/19 06:36:24;;;;;;;2.95;1.10;;;;;;;;;;4962781;28;20035;-81
2023/09/19 06:38:51;;;;;;;3.70;1.40;;;;;;;;;;4977898;28;20096;-81
2023/09/19 06:41:17;;;;;;;4.68;1.30;;;;;;;;;;4973054;28;20034;-83
2023/09/19 06:43:42;;;;;;;3.40;1.35;;;;;;;;;;4961212;28;20033;-82
2023/09/19 06:46:09;;;;;;;5.32;1.40;;;;;;;;;;4975762;28;20038;-82
2023/09/19 06:48:35;;;;;;;3.70;1.20;;;;;;;;;;4973713;28;20474;-82
2023/09/19 06:51:05;;;;;;;4.43;1.50;;;;;;;;;;4965047;28;20043;-83
2023/09/19 06:53:35;;;;;;;2.78;1.23;;;;;;;;;;4963521;28;20089;-82
2023/09/19 06:56:01;;;;;;;6.88;1.40;;;;;;;;;;4976237;28;20034;-82
2023/09/19 06:58:26;;;;;;;4.55;1.50;;;;;;;;;;4973753;28;20506;-82
2023/09/19 07:00:52;;;;;;;4.13;1.65;;;;;;;;;;4981247;28;20181;-82
2023/09/19 07:03:23;;;;;;;3.80;1.02;;;;;;;;;;4973934;28;20027;-82
2023/09/19 07:05:48;;;;;;;3.85;1.50;;;;;;;;;;4963634;28;20037;-83
2023/09/19 07:08:15;;;;;;;4.55;1.40;;;;;;;;;;4976340;28;20038;-82
2023/09/19 07:10:48;;;;;;;6.22;1.40;;;;;;;;;;4977828;28;22795;-82
2023/09/19 07:13:16;;;;;;;4.75;1.35;;;;;;;;;;4974057;28;20459;-83
2023/09/19 07:15:46;;;;;;;3.50;1.50;;;;;;;;;;4991050;28;20547;-82
2023/09/19 07:18:14;;;;;;;3.55;1.50;;;;;;;;;;4978749;28;20125;-82
2023/09/19 07:20:39;;;;;;;4.30;1.60;;;;;;;;;;4975119;28;20858;-84
2023/09/19 07:23:06;;;;;;;4.20;1.80;;;;;;;;;;4975505;28;20118;-82
2023/09/19 07:25:31;;;;;;;4.13;1.60;;;;;;;;;;4972834;28;20122;-83
2023/09/19 07:28:00;;;;;;;4.60;1.70;;;;;;;;;;4974895;28;20455;-83
2023/09/19 07:30:26;;;;;;;6.05;1.90;;;;;;;;;;4977959;28;20047;-84
2023/09/19 07:32:52;;;;;;;4.13;1.55;;;;;;;;;;4975442;28;20044;-81
2023/09/19 07:35:19;;;;;;;6.15;1.88;;;;;;;;;;4978638;28;20117;-80
2023/09/19 07:37:49;;;;;;;5.18;1.73;;;;;;;;;;4969409;28;20118;-81
2023/09/19 07:40:15;;;;;;;5.07;1.60;;;;;;;;;;4976846;28;20096;-81
2023/09/19 07:42:40;;;;;;;5.53;1.85;;;;;;;;;;4958236;28;20041;-83
2023/09/19 07:45:07;;;;;;;5.75;1.58;;;;;;;;;;4986169;28;20035;-81
2023/09/19 07:47:40;;;;;;;5.40;1.70;;;;;;;;;;4974510;28;20482;-84
2023/09/19 07:50:07;;;;;;;3.90;1.67;;;;;;;;;;4976913;28;20283;-81
2023/09/19 07:52:33;;;;;;;5.47;1.70;;;;;;;;;;4962960;28;20493;-83
2023/09/19 07:55:01;;;;;;;4.70;1.90;;;;;;;;;;4963260;28;20413;-81
2023/09/19 07:57:28;;;;;;;4.35;1.70;;;;;;;;;;4976195;28;20033;-83
2023/09/19 07:59:53;;;;;;;4.28;1.40;;;;;;;;;;4979352;28;20133;-81
2023/09/19 08:02:19;;;;;;;4.82;1.50;;;;;;;;;;4961725;28;20504;-80
2023/09/19 08:04:48;;;;;;;5.18;1.60;;;;;;;;;;4974859;28;20528;-81
2023/09/19 08:07:14;;;;;;;8.55;2.30;;;;;;;;;;4976747;28;20041;-81
2023/09/19 08:09:40;;;;;;;6.28;1.85;;;;;;;;;;4964057;28;20676;-81
2023/09/19 08:12:10;;;;;;;4.07;1.67;;;;;;;;;;4976520;28;20517;-81
2023/09/19 08:14:37;;;;;;;6.10;1.60;;;;;;;;;;4969135;28;20543;-81
2023/09/19 08:17:05;;;;;;;4.90;1.65;;;;;;;;;;4973973;28;20035;-81
2023/09/19 08:19:31;;;;;;;5.32;1.50;;;;;;;;;;4971204;28;20030;-83
2023/09/19 08:22:03;;;;;;;5.35;1.88;;;;;;;;;;4974581;28;20063;-81
2023/09/19 08:24:30;;;;;;;5.30;1.65;;;;;;;;;;4973578;28;20034;-82
2023/09/19 08:26:56;;;;;;;4.50;1.60;;;;;;;;;;4960319;28;20601;-83
2023/09/19 08:29:27;;;;;;;5.40;1.65;;;;;;;;;;4974364;28;20045;-82
2023/09/19 08:31:54;;;;;;;4.43;1.65;;;;;;;;;;4973109;28;20062;-83
2023/09/19 08:34:21;;;;;;;5.28;1.55;;;;;;;;;;4974285;28;20038;-81
2023/09/19 08:36:47;;;;;;;6.70;1.70;;;;;;;;;;4957774;28;20039;-81
2023/09/19 08:39:13;;;;;;;6.25;1.80;;;;;;;;;;4977055;28;20035;-81
2023/09/19 08:41:39;;;;;;;5.32;1.83;;;;;;;;;;4973882;28;20041;-82
2023/09/19 08:44:05;;;;;;;5.03;1.60;;;;;;;;;;4974424;28;20097;-82
2023/09/19 08:46:33;;;;;;;5.60;1.77;;;;;;;;;;4941152;28;20023;-83
2023/09/19 08:49:33;;;;;;;6.60;1.95;;;;;;;;;;4975412;28;20031;-82
2023/09/19 08:52:28;;;;;;;4.70;1.45;;;;;;;;;;4975659;28;20035;-84
2023/09/19 08:55:01;;;;;;;6.43;1.58;;;;;;;;;;4973318;28;20414;-83
2023/09/19 08:57:29;;;;;;;6.40;1.40;;;;;;;;;;4964159;28;20049;-82
2023/09/19 08:59:55;;;;;;;5.53;1.58;;;;;;;;;;4976538;28;20031;-83
2023/09/19 09:02:22;;;;;;;4.57;1.58;;;;;;;;;;4958678;28;20032;-83
2023/09/19 09:04:49;;;;;;;4.33;1.40;;;;;;;;;;4967653;28;20035;-82
2023/09/19 09:07:19;;;;;;;5.25;1.70;;;;;;;;;;4946830;28;20034;-82
2023/09/19 09:09:44;;;;;;;4.40;1.30;;;;;;;;;;4983960;28;20107;-83
2023/09/19 09:12:14;;;;;;;5.28;1.73;;;;;;;;;;4973488;28;20447;-82
2023/09/19 09:14:43;;;;;;;8.00;2.00;;;;;;;;;;4964713;28;20035;-81
2023/09/19 09:17:11;;;;;;;6.30;1.80;;;;;;;;;;4958749;28;20542;-81
2023/09/19 09:19:37;;;;;;;4.10;1.42;;;;;;;;;;4961890;28;20541;-82
2023/09/19 09:22:10;;;;;;;5.93;1.80;;;;;;;;;;4974349;28;20033;-83
2023/09/19 09:24:39;;;;;;;4.82;1.58;;;;;;;;;;4956571;28;20034;-81
2023/09/19 09:27:10;;;;;;;4.70;1.80;;;;;;;;;;4963065;28;20045;-82
2023/09/19 09:29:43;;;;;;;5.30;1.80;;;;;;;;;;4974014;28;20075;-81
2023/09/19 09:32:22;;;;;;;7.50;1.83;;;;;;;;;;4974290;28;20374;-81
2023/09/19 09:34:50;;;;;;;5.93;1.73;;;;;;;;;;4984072;28;20513;-81
2023/09/19 09:37:19;;;;;;;6.68;1.92;;;;;;;;;;4957749;28;20449;-82
2023/09/19 09:39:59;;;;;;;6.50;1.83;;;;;;;;;;4983432;28;20045;-82
2023/09/19 09:42:32;;;;;;;5.90;2.10;;;;;;;;;;4968131;28;20447;-82
2023/09/19 09:45:17;;;;;;;6.55;2.03;;;;;;;;;;4971080;28;20038;-81
2023/09/19 09:47:49;;;;;;;8.57;2.20;;;;;;;;;;4970151;28;20489;-80
2023/09/19 09:50:28;;;;;;;4.65;1.73;;;;;;;;;;4974557;28;20042;-81
2023/09/19 09:53:00;;;;;;;7.20;1.95;;;;;;;;;;4974622;28;20125;-81
2023/09/19 09:55:26;;;;;;;4.57;1.77;;;;;;;;;;4974941;28;20042;-81
2023/09/19 09:58:18;;;;;;;5.88;1.88;;;;;;;;;;4983461;28;20038;-82
2023/09/19 10:00:57;;;;;;;6.72;1.75;;;;;;;;;;4960607;28;20039;-81
2023/09/19 10:03:32;;;;;;;7.45;1.90;;;;;;;;;;4957720;28;20042;-83
2023/09/19 10:05:58;;;;;;;5.68;1.75;;;;;;;;;;4976000;28;20039;-82
2023/09/19 10:08:24;;;;;;;6.18;1.90;;;;;;;;;;4974140;28;20502;-83
2023/09/19 10:13:21;;;;;;;7.55;2.15;;;;;;;;;;4970724;28;20050;-82
2023/09/19 10:15:51;;;;;;;6.38;1.90;;;;;;;;;;4964367;28;20051;-82
2023/09/19 10:18:27;;;;;;;7.07;1.90;;;;;;;;;;4963239;28;20050;-84
2023/09/19 10:20:54;;;;;;;5.78;1.92;;;;;;;;;;4980035;28;20047;-83
2023/09/19 10:23:23;;;;;;;6.22;1.95;;;;;;;;;;4972795;28;20490;-81
2023/09/19 10:25:49;;;;;;;10.10;2.00;;;;;;;;;;4972836;28;20486;-82
2023/09/19 10:28:16;;;;;;;5.57;1.90;;;;;;;;;;4972998;28;20100;-81
2023/09/19 10:30:44;;;;;;;8.30;1.90;;;;;;;;;;4965344;28;20183;-81
2023/09/19 10:33:11;;;;;;;5.13;1.90;;;;;;;;;;4975307;28;20042;-82
2023/09/19 10:35:42;;;;;;;5.97;1.75;;;;;;;;;;4974357;28;20866;-81
2023/09/19 10:38:10;;;;;;;4.97;1.60;;;;;;;;;;4961625;28;20486;-81
2023/09/19 10:40:36;;;;;;;6.57;1.90;;;;;;;;;;4960750;28;20390;-80
2023/09/19 10:43:07;;;;;;;6.72;2.08;;;;;;;;;;4971047;28;20027;-83
2023/09/19 10:45:38;;;;;;;6.97;2.00;;;;;;;;;;4965407;28;20045;-82
2023/09/19 10:48:05;;;;;;;5.57;1.90;;;;;;;;;;4971541;28;20035;-83
2023/09/19 10:50:41;;;;;;;6.63;2.72;;;;;;;;;;4970894;28;20452;-83
2023/09/19 10:53:08;;;;;;;4.97;2.10;;;;;;;;;;4973033;28;20061;-83
2023/09/19 10:55:35;;;;;;;6.77;2.30;;;;;;;;;;4979754;28;20376;-83
2023/09/19 10:58:00;;;;;;;6.53;2.28;;;;;;;;;;4976522;28;20026;-82
2023/09/19 11:00:26;;;;;;;7.30;2.28;;;;;;;;;;4973534;28;20057;-83
2023/09/19 11:03:21;;;;;;;6.35;2.00;;;;;;;;;;4975988;28;20031;-84
2023/09/19 11:06:05;;;;;;;5.47;1.70;;;;;;;;;;4994159;28;20121;-83
2023/09/19 11:08:56;;;;;;;7.00;2.20;;;;;;;;;;4974536;28;20038;-83
2023/09/19 11:11:40;;;;;;;4.57;1.80;;;;;;;;;;4986165;28;20577;-82
2023/09/19 11:14:24;;;;;;;6.38;2.00;;;;;;;;;;4977332;28;20035;-82
2023/09/19 11:17:11;;;;;;;5.47;1.50;;;;;;;;;;4984620;28;20122;-82
2023/09/19 11:19:56;;;;;;;;;;;;;;;;;;4976189;28;20489;-81
2023/09/19 11:22:22;;;;;;;6.10;1.90;;;;;;;;;;4977719;28;19920;-82
2023/09/19 11:24:48;;;;;;;7.90;1.88;;;;;;;;;;4974734;28;20039;-83
2023/09/19 11:27:16;;;;;;;4.53;1.60;;;;;;;;;;4974425;28;20518;-81
2023/09/19 11:30:25;;;;;;;5.82;1.55;;;;;;;;;;4976484;28;20551;-84
2023/09/19 11:33:28;;;;;;;7.82;1.90;;;;;;;;;;4976693;28;20049;-84
2023/09/19 11:36:14;;;;;;;9.52;1.77;;;;;;;;;;4967612;28;20498;-82
2023/09/19 11:38:46;;;;;;;6.90;1.60;;;;;;;;;;4977050;28;20042;-83
2023/09/19 11:41:20;;;;;;;5.10;1.42;;;;;;;;;;4976988;28;20042;-82
2023/09/19 11:43:52;;;;;;;6.82;1.85;;;;;;;;;;4978992;28;20053;-83
2023/09/19 11:46:27;;;;;;;6.72;1.20;;;;;;;;;;4960742;28;20400;-83
2023/09/19 11:48:53;;;;;;;4.95;1.60;;;;;;;;;;4977002;28;20516;-83
2023/09/19 11:51:23;;;;;;;5.50;1.58;;;;;;;;;;4955486;28;20035;-83
2023/09/19 11:53:55;;;;;;;5.38;1.50;;;;;;;;;;4975269;28;20082;-83
2023/09/19 11:56:24;;;;;;;7.78;1.50;;;;;;;;;;4978727;28;20042;-83
2023/09/19 11:58:56;;;;;;;4.45;1.20;;;;;;;;;;4978171;28;20038;-83
2023/09/19 12:01:29;;;;;;;6.43;1.58;;;;;;;;;;4966043;28;20031;-83
2023/09/19 12:03:57;;;;;;;6.25;1.63;;;;;;;;;;4973448;28;20039;-84
2023/09/19 12:06:24;;;;;;;5.15;1.20;;;;;;;;;;4972437;28;20494;-82
2023/09/19 12:08:50;;;;;;;4.78;1.38;;;;;;;;;;4969143;28;20779;-83
2023/09/19 12:11:16;;;;;;;3.97;1.40;;;;;;;;;;4964327;28;20129;-83
2023/09/19 12:13:46;;;;;;;4.10;1.15;;;;;;;;;;4975370;28;20055;-83
2023/09/19 12:16:16;;;;;;;3.53;1.23;;;;;;;;;;4975492;28;20551;-83
2023/09/19 12:18:46;;;;;;;3.83;1.27;;;;;;;;;;4973212;28;20502;-84
2023/09/19 12:21:27;;;;;;;5.60;1.40;;;;;;;;;;4976696;28;20502;-83
2023/09/19 12:24:11;;;;;;;2.90;0.88;;;;;;;;;;4977728;28;20042;-82
2023/09/19 12:26:52;;;;;;;4.75;1.30;;;;;;;;;;4973805;28;20051;-82
2023/09/19 12:29:24;;;;;;;3.80;1.10;;;;;;;;;;4941040;28;20475;-83
2023/09/19 12:31:57;;;;;;;6.10;1.60;;;;;;;;;;4942207;28;20066;-82
2023/09/19 12:34:27;;;;;;;7.60;1.15;;;;;;;;;;4983542;28;20031;-79
2023/09/19 12:37:27;;;;;;;5.72;1.15;;;;;;;;;;4956361;28;20042;-82
2023/09/19 12:39:54;;;;;;;6.60;1.40;;;;;;;;;;4961444;28;20047;-83
2023/09/19 12:42:24;;;;;;;3.35;1.20;;;;;;;;;;4969905;28;20045;-82
2023/09/19 12:44:57;;;;;;;4.63;1.17;;;;;;;;;;4989499;28;20410;-82
2023/09/19 12:47:24;;;;;;;3.92;1.20;;;;;;;;;;4958605;28;20042;-82
2023/09/19 12:50:13;;;;;;;4.57;1.42;;;;;;;;;;4972665;28;20499;-83
2023/09/19 12:52:43;;;;;;;4.78;1.42;;;;;;;;;;4967124;28;20086;-81
2023/09/19 12:55:19;;;;;;;4.85;1.33;;;;;;;;;;4974286;28;20035;-82
2023/09/19 12:58:16;;;;;;;4.13;1.15;;;;;;;;;;4971890;28;20424;-83
2023/09/19 13:00:44;;;;;;;4.82;1.20;;;;;;;;;;4974762;28;20046;-83
2023/09/19 13:03:22;;;;;;;5.03;1.45;;;;;;;;;;4979230;28;20610;-83
2023/09/19 13:06:00;;;;;;;4.30;1.30;;;;;;;;;;4982620;28;20165;-83
2023/09/19 13:08:37;;;;;;;3.42;1.00;;;;;;;;;;4977699;28;20045;-84
2023/09/19 13:11:09;;;;;;;4.40;1.38;;;;;;;;;;4971795;28;20396;-83
2023/09/19 13:13:49;;;;;;;5.55;1.08;;;;;;;;;;4974459;28;20492;-83
2023/09/19 13:16:25;;;;;;;6.55;1.67;;;;;;;;;;4942890;28;20768;-84
2023/09/19 13:18:56;;;;;;;3.90;1.10;;;;;;;;;;4929634;28;20101;-83
2023/09/19 13:21:42;;;;;;;4.43;1.10;;;;;;;;;;4957994;28;20121;-82
2023/09/19 13:24:27;;;;;;;5.32;1.23;;;;;;;;;;4967661;28;20030;-83
2023/09/19 13:26:54;;;;;;;4.28;1.10;;;;;;;;;;4972669;28;20043;-84
2023/09/19 13:29:19;;;;;;;3.63;1.42;;;;;;;;;;4961802;28;20122;-84
2023/09/19 13:31:49;;;;;;;3.80;1.20;;;;;;;;;;4958352;28;20121;-85
2023/09/19 13:34:16;;;;;;;3.85;1.27;;;;;;;;;;4973652;28;20038;-85
2023/09/19 13:36:42;;;;;;;4.13;1.02;;;;;;;;;;4959984;28;20035;-84
2023/09/19 13:39:09;;;;;;;5.70;1.20;;;;;;;;;;4967530;28;20559;-82
2023/09/19 13:41:36;;;;;;;4.38;1.35;;;;;;;;;;4972956;28;20057;-84
2023/09/19 13:44:03;;;;;;;4.32;0.95;;;;;;;;;;4971671;28;20117;-84
2023/09/19 13:46:28;;;;;;;5.10;1.10;;;;;;;;;;4976234;28;20035;-83
2023/09/19 13:48:54;;;;;;;5.07;1.27;;;;;;;;;;4977619;28;20564;-84
2023/09/19 13:51:29;;;;;;;5.50;1.45;;;;;;;;;;4967269;28;20042;-84
2023/09/19 13:53:55;;;;;;;9.45;1.60;;;;;;;;;;4966023;28;20039;-84
2023/09/19 13:56:20;;;;;;;5.63;1.20;;;;;;;;;;4953773;28;20038;-83
2023/09/19 13:58:46;;;;;;;4.20;1.20;;;;;;;;;;4984306;28;20400;-82
2023/09/19 14:01:14;;;;;;;4.88;1.40;;;;;;;;;;4965887;28;20038;-84
2023/09/19 14:03:46;;;;;;;4.43;1.23;;;;;;;;;;4976680;28;20502;-85
2023/09/19 14:06:12;;;;;;;4.15;1.20;;;;;;;;;;4974869;28;20062;-83
2023/09/19 14:08:38;;;;;;;6.85;1.25;;;;;;;;;;4960087;28;20812;-83
2023/09/19 14:11:07;;;;;;;6.40;1.60;;;;;;;;;;4972615;28;20038;-83
2023/09/19 14:13:33;;;;;;;4.22;1.35;;;;;;;;;;4967485;28;20046;-84
2023/09/19 14:16:04;;;;;;;4.53;1.40;;;;;;;;;;4971331;28;20402;-84
2023/09/19 14:18:30;;;;;;;5.15;1.30;;;;;;;;;;4975123;28;20077;-85
2023/09/19 14:21:07;;;;;;;5.72;1.40;;;;;;;;;;4969276;28;20034;-85
2023/09/19 14:23:39;;;;;;;3.95;1.20;;;;;;;;;;4949558;28;20041;-85
2023/09/19 14:26:07;;;;;;;4.07;1.35;;;;;;;;;;4959520;28;20041;-84
2023/09/19 14:28:38;;;;;;;4.57;1.23;;;;;;;;;;4952417;28;20078;-84
2023/09/19 14:31:06;;;;;;;4.68;1.17;;;;;;;;;;4984342;28;20122;-84
2023/09/19 14:33:31;;;;;;;4.68;1.23;;;;;;;;;;4982560;28;20090;-85
2023/09/19 14:35:56;;;;;;;4.82;1.55;;;;;;;;;;4976413;28;20050;-84
2023/09/19 14:38:22;;;;;;;4.90;1.30;;;;;;;;;;4971165;28;20033;-84
2023/09/19 14:40:49;;;;;;;6.65;1.58;;;;;;;;;;4961519;28;20552;-84
2023/09/19 14:43:15;;;;;;;4.72;1.33;;;;;;;;;;4958202;28;20820;-84
2023/09/19 14:45:41;;;;;;;6.82;1.42;;;;;;;;;;4977738;28;20125;-84
2023/09/19 14:48:07;;;;;;;4.47;1.25;;;;;;;;;;4970483;28;20043;-83
2023/09/19 14:50:32;;;;;;;5.07;1.25;;;;;;;;;;4975039;28;20035;-84
2023/09/19 14:53:01;;;;;;;6.70;1.42;;;;;;;;;;4975879;28;20039;-83
2023/09/19 14:55:29;;;;;;;2.90;1.10;;;;;;;;;;4959612;28;20101;-84
2023/09/19 14:57:56;;;;;;;;;;;;;;;;;;4976921;28;20394;-83
2023/09/19 15:00:23;;;;;;;;;;;;;;;;;;4963940;28;19968;-83
2023/09/19 15:02:49;;;;;;;5.63;1.55;;;;;;;;;;4976243;28;19917;-83